createdAt,value
2024-04-30T05:26:05.803Z,16.07
2024-04-30T05:26:37.175Z,16.04
2024-04-30T05:27:08.552Z,16.09
2024-04-30T05:27:39.912Z,16.10
2024-04-30T05:28:11.280Z,16.10
2024-04-30T05:28:42.423Z,16.06
2024-04-30T05:29:13.759Z,16.01
2024-04-30T05:29:44.880Z,16.07
2024-04-30T05:30:16.239Z,16.09
2024-04-30T05:30:47.612Z,16.17
2024-04-30T05:31:19.083Z,16.04
2024-04-30T05:31:50.327Z,16.00
2024-04-30T05:32:22.456Z,16.00
2024-04-30T05:32:53.665Z,16.00
2024-04-30T05:33:27.536Z,15.94
2024-04-30T05:34:00.894Z,15.92
2024-04-30T05:34:32.412Z,15.92
2024-04-30T05:35:05.031Z,15.85
2024-04-30T05:35:36.157Z,15.76
2024-04-30T05:36:07.500Z,15.79
2024-04-30T05:36:38.874Z,15.82
2024-04-30T05:37:10.271Z,15.93
2024-04-30T05:37:44.341Z,16.13
2024-04-30T05:38:15.856Z,15.99
2024-04-30T05:38:46.984Z,16.01
2024-04-30T05:39:18.308Z,15.74
2024-04-30T05:39:49.672Z,16.07
2024-04-30T05:40:21.090Z,16.17
2024-04-30T05:40:52.462Z,16.13
2024-04-30T05:41:23.861Z,16.22
2024-04-30T05:41:55.247Z,16.34
2024-04-30T05:42:26.659Z,16.44
2024-04-30T05:42:58.002Z,16.36
2024-04-30T05:43:29.481Z,16.30
2024-04-30T05:44:00.905Z,16.26
2024-04-30T05:44:32.285Z,16.21
2024-04-30T05:45:04.003Z,16.06
2024-04-30T05:45:35.538Z,16.13
2024-04-30T05:46:06.956Z,16.09
2024-04-30T05:46:38.470Z,16.05
2024-04-30T05:47:10.163Z,16.07
2024-04-30T05:47:42.025Z,16.02
2024-04-30T05:48:13.137Z,16.09
2024-04-30T05:48:44.484Z,16.08
2024-04-30T05:49:16.855Z,16.09
2024-04-30T05:49:48.265Z,16.10
2024-04-30T05:50:19.646Z,16.16
2024-04-30T05:50:50.735Z,16.05
2024-04-30T05:51:22.222Z,16.06
2024-04-30T05:51:53.567Z,16.16
2024-04-30T05:52:24.944Z,16.16
2024-04-30T05:52:56.361Z,16.23
2024-04-30T05:53:28.132Z,16.16
2024-04-30T05:53:59.507Z,16.13
2024-04-30T05:54:30.956Z,16.08
2024-04-30T05:55:02.153Z,16.13
2024-04-30T05:55:33.786Z,16.16
2024-04-30T05:56:06.248Z,16.23
2024-04-30T05:56:37.695Z,16.25
2024-04-30T05:57:08.846Z,16.19
2024-04-30T05:57:40.213Z,16.12
2024-04-30T05:58:14.211Z,16.07
2024-04-30T05:58:45.872Z,16.10
2024-04-30T05:59:17.282Z,16.14
2024-04-30T05:59:48.638Z,16.17
2024-04-30T06:00:20.043Z,16.21
2024-04-30T06:00:51.420Z,16.25
2024-04-30T06:01:22.825Z,16.30
2024-04-30T06:01:54.429Z,16.29
2024-04-30T06:02:25.913Z,16.33
2024-04-30T06:02:59.105Z,16.34
2024-04-30T06:03:33.157Z,16.40
2024-04-30T06:04:05.092Z,16.57
2024-04-30T06:04:36.315Z,16.55
2024-04-30T06:05:07.817Z,16.57
2024-04-30T06:05:39.284Z,16.55
2024-04-30T06:06:10.841Z,16.66
2024-04-30T06:06:42.221Z,16.73
2024-04-30T06:07:13.634Z,16.75
2024-04-30T06:07:45.059Z,16.79
2024-04-30T06:08:16.519Z,16.76
2024-04-30T06:08:47.909Z,16.74
2024-04-30T06:09:19.326Z,16.81
2024-04-30T06:09:50.655Z,16.87
2024-04-30T06:10:24.135Z,16.81
2024-04-30T06:10:55.665Z,16.82
2024-04-30T06:11:27.202Z,16.86
2024-04-30T06:11:58.567Z,16.85
2024-04-30T06:12:29.968Z,16.76
2024-04-30T06:13:01.340Z,16.72
2024-04-30T06:13:32.935Z,16.67
2024-04-30T06:14:04.359Z,16.69
2024-04-30T06:14:35.743Z,16.70
2024-04-30T06:15:07.229Z,16.70
2024-04-30T06:15:38.541Z,16.70
2024-04-30T06:16:09.935Z,16.71
2024-04-30T06:16:41.357Z,16.78
2024-04-30T06:17:13.596Z,16.83
2024-04-30T06:17:45.044Z,16.81
2024-04-30T06:18:16.522Z,16.80
2024-04-30T06:18:48.117Z,16.78
2024-04-30T06:19:19.346Z,16.76
2024-04-30T06:19:50.805Z,16.80
2024-04-30T06:20:22.191Z,16.84
2024-04-30T06:20:53.703Z,16.92
2024-04-30T06:21:31.540Z,17.00
2024-04-30T06:22:08.993Z,17.03
2024-04-30T06:22:40.435Z,16.99
2024-04-30T06:23:11.857Z,16.97
2024-04-30T06:23:43.255Z,16.98
2024-04-30T06:24:14.361Z,16.95
2024-04-30T06:24:45.733Z,16.95
2024-04-30T06:25:16.880Z,16.94
2024-04-30T06:25:48.317Z,16.95
2024-04-30T06:26:19.711Z,16.94
2024-04-30T06:26:51.143Z,16.97
2024-04-30T06:27:22.673Z,16.98
2024-04-30T06:27:54.062Z,16.96
2024-04-30T06:28:25.814Z,16.99
2024-04-30T06:28:57.190Z,16.98
2024-04-30T06:29:28.622Z,16.98
2024-04-30T06:29:59.991Z,16.99
2024-04-30T06:30:32.043Z,17.02
2024-04-30T06:31:03.558Z,17.07
2024-04-30T06:31:35.110Z,17.11
2024-04-30T06:32:06.574Z,17.16
2024-04-30T06:32:37.968Z,17.23
2024-04-30T06:33:09.448Z,17.23
2024-04-30T06:33:40.596Z,17.22
2024-04-30T06:34:13.352Z,17.32
2024-04-30T06:34:45.969Z,17.31
2024-04-30T06:35:17.098Z,17.35
2024-04-30T06:35:48.421Z,17.34
2024-04-30T06:36:19.773Z,17.41
2024-04-30T06:36:51.141Z,17.48
2024-04-30T06:37:22.545Z,17.46
2024-04-30T06:37:55.104Z,17.46
2024-04-30T06:38:28.279Z,17.50
2024-04-30T06:38:59.652Z,17.54
2024-04-30T06:39:31.188Z,17.53
2024-04-30T06:40:02.761Z,17.53
2024-04-30T06:40:34.460Z,17.53
2024-04-30T06:41:05.847Z,17.50
2024-04-30T06:41:37.275Z,17.52
2024-04-30T06:42:08.884Z,17.54
2024-04-30T06:42:40.360Z,17.56
2024-04-30T06:43:11.499Z,17.59
2024-04-30T06:43:43.040Z,17.62
2024-04-30T06:44:14.517Z,17.60
2024-04-30T06:44:46.080Z,17.63
2024-04-30T06:45:19.334Z,17.64
2024-04-30T06:45:50.669Z,17.63
2024-04-30T06:46:22.046Z,17.64
2024-04-30T06:46:53.464Z,17.66
2024-04-30T06:47:24.990Z,17.70
2024-04-30T06:47:57.540Z,17.75
2024-04-30T06:48:29.078Z,17.77
2024-04-30T06:49:02.660Z,17.80
2024-04-30T06:49:34.142Z,17.86
2024-04-30T06:50:06.082Z,17.92
2024-04-30T06:50:37.223Z,17.95
2024-04-30T06:51:09.011Z,17.99
2024-04-30T06:51:40.532Z,18.02
2024-04-30T06:52:11.875Z,18.08
2024-04-30T06:52:43.281Z,18.14
2024-04-30T06:53:14.663Z,18.15
2024-04-30T06:53:45.769Z,18.19
2024-04-30T06:54:16.887Z,18.18
2024-04-30T06:54:48.224Z,18.17
2024-04-30T06:55:20.145Z,18.17
2024-04-30T06:55:53.756Z,18.19
2024-04-30T06:56:26.669Z,18.24
2024-04-30T06:56:58.091Z,18.26
2024-04-30T06:57:29.417Z,18.22
2024-04-30T06:58:00.842Z,18.22
2024-04-30T06:58:32.351Z,18.22
2024-04-30T06:59:03.738Z,18.21
2024-04-30T06:59:35.108Z,18.20
2024-04-30T07:00:07.021Z,18.17
2024-04-30T07:00:39.598Z,18.19
2024-04-30T07:01:10.970Z,18.21
2024-04-30T07:01:42.207Z,18.25
2024-04-30T07:02:13.630Z,18.30
2024-04-30T07:02:45.015Z,18.31
2024-04-30T07:03:16.348Z,18.33
2024-04-30T07:03:47.455Z,18.32
2024-04-30T07:04:18.871Z,18.35
2024-04-30T07:04:50.404Z,18.34
2024-04-30T07:05:21.849Z,18.33
2024-04-30T07:05:53.729Z,18.38
2024-04-30T07:06:25.106Z,18.40
2024-04-30T07:06:56.443Z,18.43
2024-04-30T07:07:29.033Z,18.48
2024-04-30T07:08:00.506Z,18.51
2024-04-30T07:08:31.655Z,18.57
2024-04-30T07:09:03.200Z,18.61
2024-04-30T07:09:34.548Z,18.62
2024-04-30T07:10:06.441Z,18.62
2024-04-30T07:10:37.653Z,18.59
2024-04-30T07:11:08.814Z,18.56
2024-04-30T07:11:40.316Z,18.52
2024-04-30T07:12:11.919Z,18.45
2024-04-30T07:12:43.294Z,18.44
2024-04-30T07:13:14.934Z,18.44
2024-04-30T07:13:46.340Z,18.45
2024-04-30T07:14:17.756Z,18.27
2024-04-30T07:14:49.212Z,18.40
2024-04-30T07:15:20.653Z,18.43
2024-04-30T07:15:52.043Z,18.49
2024-04-30T07:16:23.484Z,18.54
2024-04-30T07:17:02.534Z,18.59
2024-04-30T07:17:40.161Z,18.68
2024-04-30T07:18:11.665Z,18.72
2024-04-30T07:18:43.204Z,18.71
2024-04-30T07:19:14.572Z,18.72
2024-04-30T07:19:47.092Z,18.72
2024-04-30T07:20:19.589Z,18.71
2024-04-30T07:20:50.941Z,18.76
2024-04-30T07:21:22.318Z,18.81
2024-04-30T07:21:53.467Z,18.85
2024-04-30T07:22:24.866Z,18.86
2024-04-30T07:22:56.466Z,18.91
2024-04-30T07:23:27.661Z,18.89
2024-04-30T07:23:58.785Z,18.91
2024-04-30T07:24:30.159Z,18.97
2024-04-30T07:25:01.523Z,18.99
2024-04-30T07:25:32.955Z,19.02
2024-04-30T07:26:04.751Z,19.07
2024-04-30T07:26:36.144Z,19.15
2024-04-30T07:27:07.480Z,19.19
2024-04-30T07:27:38.863Z,19.08
2024-04-30T07:28:10.271Z,19.11
2024-04-30T07:28:41.735Z,19.14
2024-04-30T07:29:13.119Z,19.17
2024-04-30T07:29:44.442Z,19.21
2024-04-30T07:30:15.762Z,19.24
2024-04-30T07:30:47.128Z,19.24
2024-04-30T07:31:18.567Z,19.25
2024-04-30T07:31:51.091Z,19.26
2024-04-30T07:32:22.546Z,19.27
2024-04-30T07:32:54.257Z,19.27
2024-04-30T07:33:25.814Z,19.27
2024-04-30T07:33:57.255Z,19.31
2024-04-30T07:34:28.784Z,19.35
2024-04-30T07:35:00.254Z,19.36
2024-04-30T07:35:31.354Z,19.39
2024-04-30T07:36:02.950Z,19.45
2024-04-30T07:36:34.330Z,19.49
2024-04-30T07:37:05.441Z,19.54
2024-04-30T07:37:36.909Z,19.59
2024-04-30T07:38:08.316Z,19.64
2024-04-30T07:38:39.814Z,19.66
2024-04-30T07:39:11.204Z,19.66
2024-04-30T07:39:42.593Z,19.67
2024-04-30T07:40:14.491Z,19.69
2024-04-30T07:40:45.673Z,19.73
2024-04-30T07:41:17.057Z,19.78
2024-04-30T07:41:48.431Z,19.83
2024-04-30T07:42:19.796Z,19.87
2024-04-30T07:42:51.225Z,19.90
2024-04-30T07:43:22.674Z,19.92
2024-04-30T07:43:54.934Z,20.06
2024-04-30T07:44:26.308Z,20.10
2024-04-30T07:44:57.666Z,20.06
2024-04-30T07:45:29.041Z,20.10
2024-04-30T07:46:00.441Z,20.15
2024-04-30T07:46:31.888Z,20.21
2024-04-30T07:47:03.554Z,20.22
2024-04-30T07:47:35.024Z,20.23
2024-04-30T07:48:06.669Z,20.21
2024-04-30T07:48:39.443Z,20.20
2024-04-30T07:49:10.848Z,20.22
2024-04-30T07:49:42.234Z,20.27
2024-04-30T07:50:13.719Z,20.35
2024-04-30T07:50:45.090Z,20.38
2024-04-30T07:51:17.046Z,20.37
2024-04-30T07:51:48.464Z,20.34
2024-04-30T07:52:19.896Z,20.34
2024-04-30T07:52:51.252Z,20.33
2024-04-30T07:53:22.627Z,20.38
2024-04-30T07:53:54.033Z,20.43
2024-04-30T07:54:25.411Z,20.46
2024-04-30T07:54:59.668Z,20.46
2024-04-30T07:55:32.129Z,20.48
2024-04-30T07:56:03.783Z,20.47
2024-04-30T07:56:35.193Z,20.47
2024-04-30T07:57:06.535Z,20.48
2024-04-30T07:57:37.921Z,20.47
2024-04-30T07:58:09.292Z,20.44
2024-04-30T07:58:40.526Z,20.51
2024-04-30T07:59:11.980Z,20.54
2024-04-30T07:59:43.364Z,20.57
2024-04-30T08:00:14.767Z,20.57
2024-04-30T08:00:46.329Z,20.55
2024-04-30T08:01:17.978Z,20.60
2024-04-30T08:01:49.498Z,20.64
2024-04-30T08:02:20.966Z,20.62
2024-04-30T08:02:52.603Z,20.63
2024-04-30T08:03:24.066Z,20.64
2024-04-30T08:03:55.536Z,20.69
2024-04-30T08:04:26.896Z,20.70
2024-04-30T08:04:58.260Z,20.76
2024-04-30T08:05:31.225Z,20.74
2024-04-30T08:06:10.879Z,20.78
2024-04-30T08:06:51.106Z,20.82
2024-04-30T08:07:22.479Z,20.82
2024-04-30T08:07:53.821Z,20.84
2024-04-30T08:08:25.168Z,20.83
2024-04-30T08:08:56.540Z,20.81
2024-04-30T08:09:27.852Z,20.79
2024-04-30T08:09:59.228Z,20.79
2024-04-30T08:10:30.605Z,20.85
2024-04-30T08:11:01.938Z,20.81
2024-04-30T08:11:33.825Z,20.82
2024-04-30T08:12:05.329Z,20.87
2024-04-30T08:12:36.731Z,20.94
2024-04-30T08:13:08.108Z,20.97
2024-04-30T08:13:41.699Z,20.97
2024-04-30T08:14:13.146Z,20.98
2024-04-30T08:14:50.295Z,20.94
2024-04-30T08:15:27.579Z,21.01
2024-04-30T08:16:04.694Z,21.03
2024-04-30T08:16:36.315Z,21.02
2024-04-30T08:17:07.761Z,21.09
2024-04-30T08:17:39.378Z,21.14
2024-04-30T08:18:11.326Z,21.08
2024-04-30T08:18:42.756Z,21.10
2024-04-30T08:19:14.095Z,21.12
2024-04-30T08:19:45.644Z,21.17
2024-04-30T08:20:17.062Z,21.18
2024-04-30T08:20:48.404Z,21.23
2024-04-30T08:21:19.673Z,21.27
2024-04-30T08:21:50.981Z,21.28
2024-04-30T08:22:23.167Z,21.28
2024-04-30T08:22:55.149Z,21.27
2024-04-30T08:23:26.529Z,21.29
2024-04-30T08:23:57.635Z,21.30
2024-04-30T08:24:29.018Z,21.34
2024-04-30T08:25:00.398Z,21.36
2024-04-30T08:25:31.597Z,21.32
2024-04-30T08:26:03.056Z,21.30
2024-04-30T08:26:37.865Z,21.32
2024-04-30T08:27:09.014Z,21.37
2024-04-30T08:27:40.399Z,21.41
2024-04-30T08:28:11.775Z,21.48
2024-04-30T08:28:43.852Z,21.48
2024-04-30T08:29:16.043Z,21.48
2024-04-30T08:29:47.889Z,21.47
2024-04-30T08:30:19.751Z,21.51
2024-04-30T08:30:51.666Z,21.59
2024-04-30T08:31:23.574Z,21.61
2024-04-30T08:31:55.008Z,21.59
2024-04-30T08:32:26.477Z,21.59
2024-04-30T08:32:59.295Z,21.56
2024-04-30T08:33:30.847Z,21.54
2024-04-30T08:34:02.260Z,21.65
2024-04-30T08:34:33.427Z,21.63
2024-04-30T08:35:05.030Z,21.61
2024-04-30T08:35:36.715Z,21.55
2024-04-30T08:36:08.181Z,21.54
2024-04-30T08:36:39.573Z,21.54
2024-04-30T08:37:10.745Z,21.53
2024-04-30T08:37:51.321Z,21.55
2024-04-30T08:38:26.338Z,21.55
2024-04-30T08:38:57.507Z,21.58
2024-04-30T08:39:29.071Z,21.58
2024-04-30T08:40:00.575Z,21.62
2024-04-30T08:40:31.785Z,21.62
2024-04-30T08:41:06.691Z,21.63
2024-04-30T08:41:38.602Z,21.60
2024-04-30T08:42:10.872Z,21.64
2024-04-30T08:42:48.565Z,21.64
2024-04-30T08:43:21.593Z,21.71
2024-04-30T08:43:54.566Z,21.76
2024-04-30T08:44:27.424Z,21.75
2024-04-30T08:45:01.725Z,21.78
2024-04-30T08:45:33.657Z,21.81
2024-04-30T08:46:08.194Z,21.86
2024-04-30T08:46:42.846Z,21.87
2024-04-30T08:47:14.589Z,21.89
2024-04-30T08:47:49.256Z,21.95
2024-04-30T08:48:23.662Z,21.98
2024-04-30T08:48:56.728Z,21.99
2024-04-30T08:49:38.392Z,21.99
2024-04-30T08:50:21.733Z,21.99
2024-04-30T08:50:53.688Z,22.03
2024-04-30T08:51:24.906Z,22.03
2024-04-30T08:52:00.333Z,22.08
2024-04-30T08:52:33.647Z,22.09
2024-04-30T08:53:07.867Z,22.12
2024-04-30T08:53:39.372Z,22.14
2024-04-30T08:54:11.118Z,22.13
2024-04-30T08:54:42.915Z,22.17
2024-04-30T08:55:16.656Z,22.20
2024-04-30T08:55:48.288Z,22.22
2024-04-30T08:56:19.875Z,22.28
2024-04-30T08:56:51.321Z,22.30
2024-04-30T08:57:22.757Z,22.35
2024-04-30T08:57:54.234Z,22.38
2024-04-30T08:58:25.658Z,22.37
2024-04-30T08:58:57.151Z,22.38
2024-04-30T08:59:28.491Z,22.38
2024-04-30T09:00:00.381Z,22.42
2024-04-30T09:00:31.907Z,22.40
2024-04-30T09:01:04.447Z,22.32
2024-04-30T09:01:37.596Z,22.39
2024-04-30T09:02:09.196Z,22.40
2024-04-30T09:02:40.992Z,22.41
2024-04-30T09:03:13.077Z,22.43
2024-04-30T09:03:44.892Z,22.44
2024-04-30T09:04:17.226Z,22.44
2024-04-30T09:04:49.685Z,22.44
2024-04-30T09:05:21.917Z,22.46
2024-04-30T09:05:54.395Z,22.47
2024-04-30T09:06:25.932Z,22.52
2024-04-30T09:06:57.368Z,22.52
2024-04-30T09:07:29.047Z,22.56
2024-04-30T09:08:01.382Z,22.60
2024-04-30T09:08:32.878Z,22.62
2024-04-30T09:09:04.484Z,22.64
2024-04-30T09:09:35.880Z,22.61
2024-04-30T09:10:07.392Z,22.59
2024-04-30T09:10:40.643Z,22.61
2024-04-30T09:11:11.961Z,22.58
2024-04-30T09:11:43.285Z,22.58
2024-04-30T09:12:14.803Z,22.63
2024-04-30T09:12:46.198Z,22.65
2024-04-30T09:13:18.772Z,22.61
2024-04-30T09:13:51.450Z,22.60
2024-04-30T09:14:22.851Z,22.63
2024-04-30T09:14:55.851Z,22.64
2024-04-30T09:15:27.348Z,22.64
2024-04-30T09:16:00.210Z,22.64
2024-04-30T09:16:31.691Z,22.64
2024-04-30T09:17:03.363Z,22.71
2024-04-30T09:17:34.891Z,22.72
2024-04-30T09:18:09.109Z,22.71
2024-04-30T09:18:50.211Z,22.69
2024-04-30T09:19:29.060Z,22.76
2024-04-30T09:20:03.233Z,22.82
2024-04-30T09:20:44.743Z,22.83
2024-04-30T09:21:45.718Z,22.87
2024-04-30T09:22:18.734Z,22.92
2024-04-30T09:22:50.914Z,22.99
2024-04-30T09:23:26.563Z,23.06
2024-04-30T09:24:08.045Z,23.03
2024-04-30T09:24:46.450Z,23.05
2024-04-30T09:25:19.099Z,23.08
2024-04-30T09:25:50.494Z,23.07
2024-04-30T09:26:21.884Z,23.08
2024-04-30T09:26:53.267Z,23.00
2024-04-30T09:27:32.172Z,22.94
2024-04-30T09:28:15.976Z,22.93
2024-04-30T09:28:53.887Z,22.93
2024-04-30T09:29:35.767Z,22.95
2024-04-30T09:30:18.413Z,22.98
2024-04-30T09:30:56.871Z,23.03
2024-04-30T09:31:38.377Z,23.08
2024-04-30T09:32:14.337Z,23.01
2024-04-30T09:32:45.802Z,22.96
2024-04-30T09:33:17.252Z,22.94
2024-04-30T09:33:54.826Z,22.95
2024-04-30T09:34:26.232Z,22.97
2024-04-30T09:34:57.552Z,22.99
2024-04-30T09:35:29.811Z,23.01
2024-04-30T09:36:07.256Z,22.91
2024-04-30T09:36:40.490Z,22.83
2024-04-30T09:37:22.531Z,22.91
2024-04-30T09:38:00.360Z,22.93
2024-04-30T09:38:33.528Z,23.00
2024-04-30T09:39:09.570Z,23.06
2024-04-30T09:39:43.121Z,23.15
2024-04-30T09:40:14.661Z,23.21
2024-04-30T09:40:46.140Z,23.28
2024-04-30T09:41:18.994Z,23.33
2024-04-30T09:41:50.658Z,23.38
2024-04-30T09:42:25.646Z,23.40
2024-04-30T09:42:56.984Z,23.42
2024-04-30T09:43:31.265Z,23.43
2024-04-30T09:44:02.822Z,23.48
2024-04-30T09:44:35.056Z,23.53
2024-04-30T09:45:07.134Z,23.53
2024-04-30T09:45:38.550Z,23.50
2024-04-30T09:46:10.895Z,23.48
2024-04-30T09:46:43.121Z,23.47
2024-04-30T09:47:14.725Z,23.29
2024-04-30T09:47:46.298Z,23.49
2024-04-30T09:48:18.320Z,23.54
2024-04-30T09:48:51.035Z,23.61
2024-04-30T09:49:23.916Z,23.56
2024-04-30T09:49:55.484Z,23.46
2024-04-30T09:50:29.255Z,23.47
2024-04-30T09:51:04.579Z,23.51
2024-04-30T09:51:39.218Z,23.50
2024-04-30T09:52:12.239Z,23.52
2024-04-30T09:52:45.118Z,23.52
2024-04-30T09:53:18.142Z,23.51
2024-04-30T09:53:49.841Z,23.60
2024-04-30T09:54:24.707Z,23.66
2024-04-30T09:55:00.707Z,23.74
2024-04-30T09:55:35.996Z,23.78
2024-04-30T09:56:10.757Z,23.82
2024-04-30T09:56:45.305Z,23.77
2024-04-30T09:57:17.318Z,23.78
2024-04-30T09:57:48.887Z,23.80
2024-04-30T09:58:20.242Z,23.84
2024-04-30T09:58:51.778Z,23.89
2024-04-30T09:59:23.131Z,23.89
2024-04-30T09:59:54.549Z,23.91
2024-04-30T10:00:28.794Z,23.88
2024-04-30T10:01:03.953Z,23.71
2024-04-30T10:01:36.221Z,23.66
2024-04-30T10:02:11.290Z,23.64
2024-04-30T10:02:54.393Z,23.71
2024-04-30T10:03:27.982Z,23.75
2024-04-30T10:04:01.497Z,23.77
2024-04-30T10:04:34.724Z,23.82
2024-04-30T10:05:07.733Z,23.88
2024-04-30T10:05:50.942Z,23.91
2024-04-30T10:06:22.875Z,23.86
2024-04-30T10:06:56.738Z,23.86
2024-04-30T10:07:29.441Z,23.86
2024-04-30T10:08:01.621Z,23.87
2024-04-30T10:08:34.120Z,23.81
2024-04-30T10:09:06.016Z,23.81
2024-04-30T10:09:37.375Z,23.84
2024-04-30T10:10:08.825Z,23.85
2024-04-30T10:10:40.276Z,23.85
2024-04-30T10:11:11.963Z,23.93
2024-04-30T10:11:46.876Z,23.90
2024-04-30T10:12:27.109Z,24.01
2024-04-30T10:13:08.111Z,23.99
2024-04-30T10:13:53.132Z,23.96
2024-04-30T10:14:28.691Z,23.95
2024-04-30T10:15:13.732Z,24.00
2024-04-30T10:15:45.057Z,24.12
2024-04-30T10:16:17.226Z,24.19
2024-04-30T10:16:58.760Z,24.27
2024-04-30T10:17:41.987Z,24.02
2024-04-30T10:18:23.390Z,24.48
2024-04-30T10:19:02.026Z,24.45
2024-04-30T10:19:43.501Z,24.43
2024-04-30T10:20:33.958Z,24.44
2024-04-30T10:21:11.586Z,24.52
2024-04-30T10:21:42.969Z,24.41
2024-04-30T10:22:18.131Z,24.33
2024-04-30T10:22:49.819Z,24.40
2024-04-30T10:23:27.814Z,24.47
2024-04-30T10:23:59.284Z,24.50
2024-04-30T10:24:38.737Z,24.46
2024-04-30T10:25:23.155Z,24.38
2024-04-30T10:26:04.689Z,24.33
2024-04-30T10:26:44.655Z,24.16
2024-04-30T10:27:19.356Z,24.11
2024-04-30T10:27:51.434Z,24.13
2024-04-30T10:28:23.763Z,24.20
2024-04-30T10:29:04.430Z,24.34
2024-04-30T10:29:39.199Z,24.44
2024-04-30T10:30:10.612Z,24.45
2024-04-30T10:30:42.086Z,24.44
2024-04-30T10:31:19.626Z,24.48
2024-04-30T10:31:51.055Z,24.54
2024-04-30T10:32:22.453Z,24.64
2024-04-30T10:32:55.249Z,24.72
2024-04-30T10:33:26.555Z,24.79
2024-04-30T10:34:09.802Z,24.71
2024-04-30T10:34:42.327Z,24.58
2024-04-30T10:35:13.474Z,24.48
2024-04-30T10:35:44.557Z,24.45
2024-04-30T10:36:16.990Z,24.32
2024-04-30T10:36:48.431Z,24.30
2024-04-30T10:37:29.953Z,24.23
2024-04-30T10:38:04.336Z,24.26
2024-04-30T10:38:38.253Z,24.30
2024-04-30T10:39:09.435Z,24.43
2024-04-30T10:39:41.098Z,24.55
2024-04-30T10:40:15.199Z,24.65
2024-04-30T10:40:46.636Z,24.78
2024-04-30T10:41:18.091Z,24.87
2024-04-30T10:41:49.517Z,24.91
2024-04-30T10:42:20.681Z,24.69
2024-04-30T10:42:51.763Z,24.98
2024-04-30T10:43:23.307Z,25.02
2024-04-30T10:44:02.312Z,24.91
2024-04-30T10:44:43.644Z,24.87
2024-04-30T10:45:22.599Z,24.91
2024-04-30T10:45:54.009Z,24.95
2024-04-30T10:46:26.007Z,25.05
2024-04-30T10:46:57.602Z,25.13
2024-04-30T10:47:35.290Z,25.07
2024-04-30T10:48:10.337Z,25.14
2024-04-30T10:48:52.212Z,25.19
2024-04-30T10:49:23.665Z,25.19
2024-04-30T10:50:16.446Z,25.21
2024-04-30T10:50:59.225Z,25.12
2024-04-30T10:51:35.623Z,25.07
2024-04-30T10:52:07.042Z,25.13
2024-04-30T10:52:38.512Z,25.21
2024-04-30T10:53:09.989Z,25.10
2024-04-30T10:53:42.018Z,25.13
2024-04-30T10:54:14.142Z,25.20
2024-04-30T10:54:45.568Z,25.27
2024-04-30T10:55:19.875Z,25.34
2024-04-30T10:55:51.476Z,25.28
2024-04-30T10:56:23.218Z,25.34
2024-04-30T10:56:54.660Z,25.40
2024-04-30T10:57:30.581Z,25.46
2024-04-30T10:58:13.841Z,25.44
2024-04-30T10:58:55.834Z,25.47
2024-04-30T10:59:27.873Z,25.45
2024-04-30T11:00:06.710Z,25.44
2024-04-30T11:00:44.438Z,25.41
2024-04-30T11:01:23.582Z,25.51
2024-04-30T11:02:01.063Z,25.60
2024-04-30T11:02:32.468Z,25.66
2024-04-30T11:03:08.338Z,25.78
2024-04-30T11:03:39.740Z,25.79
2024-04-30T11:04:12.194Z,25.71
2024-04-30T11:04:43.812Z,25.76
2024-04-30T11:05:16.992Z,25.81
2024-04-30T11:05:58.921Z,25.75
2024-04-30T11:06:42.922Z,25.52
2024-04-30T11:07:18.050Z,25.58
2024-04-30T11:07:58.982Z,25.59
2024-04-30T11:08:31.530Z,25.66
2024-04-30T11:09:05.431Z,25.74
2024-04-30T11:09:39.608Z,25.76
2024-04-30T11:10:11.048Z,25.73
2024-04-30T11:10:45.614Z,25.78
2024-04-30T11:11:39.732Z,25.82
2024-04-30T11:12:10.892Z,25.84
2024-04-30T11:12:42.638Z,25.77
2024-04-30T11:13:22.545Z,25.77
2024-04-30T11:14:00.717Z,25.84
2024-04-30T11:14:44.568Z,25.87
2024-04-30T11:15:16.082Z,25.88
2024-04-30T11:15:51.336Z,25.90
2024-04-30T11:16:27.755Z,25.95
2024-04-30T11:16:59.227Z,25.99
2024-04-30T11:17:30.673Z,25.92
2024-04-30T11:18:02.234Z,25.95
2024-04-30T11:18:36.095Z,25.78
2024-04-30T11:19:08.821Z,25.85
2024-04-30T11:19:41.618Z,25.96
2024-04-30T11:20:12.775Z,25.94
2024-04-30T11:20:44.121Z,25.84
2024-04-30T11:21:21.000Z,25.82
2024-04-30T11:21:52.932Z,25.88
2024-04-30T11:22:24.316Z,25.98
2024-04-30T11:22:55.728Z,26.10
2024-04-30T11:23:27.083Z,26.26
2024-04-30T11:23:58.438Z,26.34
2024-04-30T11:24:29.803Z,26.37
2024-04-30T11:25:01.183Z,26.25
2024-04-30T11:25:32.394Z,25.96
2024-04-30T11:26:03.719Z,26.05
2024-04-30T11:26:35.320Z,26.18
2024-04-30T11:27:06.712Z,26.36
2024-04-30T11:27:38.102Z,26.55
2024-04-30T11:28:09.218Z,26.56
2024-04-30T11:28:40.684Z,26.72
2024-04-30T11:29:23.903Z,26.77
2024-04-30T11:30:04.195Z,26.71
2024-04-30T11:30:35.587Z,26.68
2024-04-30T11:31:07.033Z,26.52
2024-04-30T11:31:38.498Z,26.49
2024-04-30T11:32:10.168Z,26.64
2024-04-30T11:32:41.745Z,26.52
2024-04-30T11:33:13.348Z,26.82
2024-04-30T11:33:44.725Z,26.93
2024-04-30T11:34:16.229Z,26.96
2024-04-30T11:34:51.220Z,27.05
2024-04-30T11:35:23.409Z,26.97
2024-04-30T11:35:54.760Z,26.91
2024-04-30T11:36:25.886Z,26.74
2024-04-30T11:36:57.230Z,26.63
2024-04-30T11:37:28.457Z,26.49
2024-04-30T11:38:00.047Z,26.38
2024-04-30T11:38:31.620Z,26.18
2024-04-30T11:39:03.350Z,26.19
2024-04-30T11:39:34.791Z,26.21
2024-04-30T11:40:06.940Z,26.31
2024-04-30T11:40:38.679Z,26.38
2024-04-30T11:41:10.053Z,26.45
2024-04-30T11:41:48.493Z,26.41
2024-04-30T11:42:27.531Z,26.55
2024-04-30T11:43:05.461Z,26.66
2024-04-30T11:43:36.660Z,26.82
2024-04-30T11:44:08.066Z,26.97
2024-04-30T11:44:39.525Z,27.13
2024-04-30T11:45:13.755Z,27.23
2024-04-30T11:45:45.091Z,27.35
2024-04-30T11:46:16.478Z,27.42
2024-04-30T11:46:47.893Z,27.46
2024-04-30T11:47:19.333Z,27.40
2024-04-30T11:47:51.011Z,27.42
2024-04-30T11:48:24.058Z,27.45
2024-04-30T11:48:56.469Z,27.42
2024-04-30T11:49:27.875Z,27.31
2024-04-30T11:49:59.276Z,27.24
2024-04-30T11:50:30.648Z,27.08
2024-04-30T11:51:02.799Z,27.06
2024-04-30T11:51:33.993Z,27.15
2024-04-30T11:52:05.514Z,27.28
2024-04-30T11:52:39.209Z,27.33
2024-04-30T11:53:10.766Z,27.39
2024-04-30T11:53:42.153Z,27.45
2024-04-30T11:54:13.526Z,27.37
2024-04-30T11:54:45.094Z,26.87
2024-04-30T11:55:16.226Z,26.90
2024-04-30T11:55:48.126Z,27.08
2024-04-30T11:56:19.568Z,27.20
2024-04-30T11:56:51.084Z,27.27
2024-04-30T11:57:22.504Z,27.12
2024-04-30T11:57:53.859Z,27.16
2024-04-30T11:58:25.313Z,26.90
2024-04-30T11:58:56.720Z,26.76
2024-04-30T11:59:28.219Z,26.98
2024-04-30T11:59:59.337Z,27.09
2024-04-30T12:00:30.967Z,27.22
2024-04-30T12:01:02.243Z,27.37
2024-04-30T12:01:33.804Z,27.42
2024-04-30T12:02:05.474Z,27.42
2024-04-30T12:02:36.925Z,27.54
2024-04-30T12:03:08.533Z,27.64
2024-04-30T12:03:40.121Z,27.61
2024-04-30T12:04:11.767Z,27.65
2024-04-30T12:04:43.215Z,27.60
2024-04-30T12:05:14.756Z,27.56
2024-04-30T12:05:46.201Z,27.47
2024-04-30T12:06:17.656Z,27.60
2024-04-30T12:06:49.160Z,27.52
2024-04-30T12:07:20.680Z,27.73
2024-04-30T12:07:52.116Z,27.84
2024-04-30T12:08:23.619Z,27.63
2024-04-30T12:08:55.100Z,27.68
2024-04-30T12:09:26.804Z,27.84
2024-04-30T12:09:59.618Z,27.75
2024-04-30T12:10:31.019Z,27.58
2024-04-30T12:11:02.510Z,27.38
2024-04-30T12:11:39.908Z,26.91
2024-04-30T12:12:11.306Z,26.94
2024-04-30T12:12:45.464Z,27.04
2024-04-30T12:13:16.872Z,27.19
2024-04-30T12:13:48.610Z,27.35
2024-04-30T12:14:20.020Z,27.42
2024-04-30T12:14:51.463Z,27.60
2024-04-30T12:15:22.578Z,27.76
2024-04-30T12:15:55.308Z,27.89
2024-04-30T12:16:26.769Z,27.93
2024-04-30T12:16:58.284Z,28.04
2024-04-30T12:17:29.889Z,28.03
2024-04-30T12:18:01.449Z,28.00
2024-04-30T12:18:32.964Z,27.90
2024-04-30T12:19:08.408Z,27.99
2024-04-30T12:19:39.859Z,28.14
2024-04-30T12:20:11.313Z,27.91
2024-04-30T12:20:42.724Z,28.14
2024-04-30T12:21:14.158Z,27.94
2024-04-30T12:21:45.627Z,27.88
2024-04-30T12:22:17.093Z,28.01
2024-04-30T12:22:48.345Z,28.19
2024-04-30T12:23:20.671Z,28.39
2024-04-30T12:23:52.067Z,28.53
2024-04-30T12:24:23.425Z,28.70
2024-04-30T12:24:54.759Z,28.81
2024-04-30T12:25:26.218Z,28.89
2024-04-30T12:25:57.575Z,28.86
2024-04-30T12:26:36.288Z,28.98
2024-04-30T12:27:07.763Z,29.08
2024-04-30T12:27:39.699Z,29.04
2024-04-30T12:28:11.111Z,28.97
2024-04-30T12:28:42.764Z,28.88